Afton, Texas
Current Conditions -  °F | °C
As of 7:53 PM on Friday 28 Nov 2014 (Local Time) from KCDS Reporting Station
Clear Clear  
Wind Chill: 63°   Ceiling: Unl
Heat Index: 63°   Visibility: 10mi
Dew Point: 30°   Wind: 14mph
Humidity: 29%   Direction: 200°SSW
Pressure: 29.86"   Gusts: NA
Location:  33.76°N, 100.82°W
Report Text: KCDS 290153Z AUTO 20012KT 10SM CLR 17/M01 A2986 RMK AO2 SLP105 T01721011
Loading
Personal Weather Stations






























Interactive Weather Map New forecast layout! Learn more

10-Day Weather Forecast

Advertisements
Track Severe Weather on mobile